Time;durP1;ratioP1;P1;durP2;ratioP2;P2;SDS_P1;SDS_P2;PMS_P1;PMS_P2;Temp;Humidity;BMP_temperature;BMP_pressure;BME280_temperature;BME280_humidity;BME280_pressure;Samples;Min_cycle;Max_cycle;Signal;HPM_P1;HPM_P2
2021/09/17 00:00:07;;;;;;;10.63;6.57;;;16.60;99.90;;;;;;5116569;28;20028;-68
2021/09/17 00:02:33;;;;;;;8.00;6.05;;;16.60;99.90;;;;;;5116051;28;20032;-67
2021/09/17 00:04:59;;;;;;;12.20;6.60;;;16.60;99.90;;;;;;5115592;28;20035;-67
2021/09/17 00:07:25;;;;;;;7.40;6.00;;;16.70;99.90;;;;;;5115676;28;20028;-67
2021/09/17 00:09:51;;;;;;;11.07;6.03;;;16.70;99.90;;;;;;5115538;28;20262;-67
2021/09/17 00:12:17;;;;;;;7.18;6.07;;;16.80;99.90;;;;;;5115540;28;20027;-67
2021/09/17 00:14:43;;;;;;;10.80;6.07;;;16.80;99.90;;;;;;5115537;28;20035;-67
2021/09/17 00:17:08;;;;;;;8.00;6.00;;;16.70;99.90;;;;;;5115508;28;20027;-68
2021/09/17 00:19:34;;;;;;;7.22;5.38;;;16.60;99.90;;;;;;5115829;28;20032;-68
2021/09/17 00:22:00;;;;;;;12.40;5.75;;;16.50;99.90;;;;;;5115437;28;20028;-68
2021/09/17 00:24:25;;;;;;;12.27;6.88;;;16.50;99.90;;;;;;5114177;28;20092;-67
2021/09/17 00:26:51;;;;;;;7.95;5.97;;;16.30;99.90;;;;;;5115029;28;20096;-67
2021/09/17 00:29:17;;;;;;;7.47;5.78;;;16.30;99.90;;;;;;5115205;28;20030;-67
2021/09/17 00:31:43;;;;;;;8.35;6.40;;;16.30;99.90;;;;;;5115272;28;20023;-67
2021/09/17 00:34:09;;;;;;;7.38;6.15;;;16.20;99.90;;;;;;5115164;28;20052;-67
2021/09/17 00:36:35;;;;;;;6.72;5.90;;;16.10;99.90;;;;;;5115343;28;20047;-67
2021/09/17 00:39:01;;;;;;;9.48;6.28;;;16.00;99.90;;;;;;5114981;28;20055;-67
2021/09/17 00:41:27;;;;;;;9.20;6.65;;;16.10;99.90;;;;;;5114977;28;20055;-67
2021/09/17 00:43:53;;;;;;;7.85;6.57;;;16.10;99.90;;;;;;5115450;28;20023;-67
2021/09/17 00:46:19;;;;;;;10.85;6.13;;;16.00;99.90;;;;;;5114740;28;20036;-67
2021/09/17 00:48:45;;;;;;;8.05;6.38;;;16.10;99.90;;;;;;5114715;28;20022;-67
2021/09/17 00:51:10;;;;;;;8.00;6.45;;;16.10;99.90;;;;;;5114649;28;20028;-67
2021/09/17 00:53:36;;;;;;;7.57;6.38;;;16.10;99.90;;;;;;5113284;28;20020;-67
2021/09/17 00:56:03;;;;;;;9.95;6.22;;;16.20;99.90;;;;;;5114782;28;20035;-67
2021/09/17 00:58:30;;;;;;;8.32;6.30;;;16.20;99.90;;;;;;5114944;28;20019;-68
2021/09/17 01:00:56;;;;;;;9.70;7.00;;;16.20;99.90;;;;;;5113219;28;20065;-68
2021/09/17 01:03:22;;;;;;;;;;;16.10;99.90;;;;;;5113588;28;20115;-67
2021/09/17 01:05:48;;;;;;;10.95;6.85;;;16.10;99.90;;;;;;5113453;28;20347;-67
2021/09/17 01:08:13;;;;;;;10.23;7.00;;;16.10;99.90;;;;;;5114343;28;20118;-67
2021/09/17 01:10:39;;;;;;;9.38;7.00;;;16.20;99.90;;;;;;5114584;28;20024;-67
2021/09/17 01:13:05;;;;;;;9.00;6.82;;;16.20;99.90;;;;;;5114222;28;20430;-67
2021/09/17 01:15:31;;;;;;;9.70;6.53;;;16.10;99.90;;;;;;5114403;28;20032;-68
2021/09/17 01:17:57;;;;;;;7.78;6.70;;;16.20;99.90;;;;;;5114177;27;20077;-67
2021/09/17 01:20:23;;;;;;;10.23;7.45;;;16.20;99.90;;;;;;5114323;28;20118;-67
2021/09/17 01:22:50;;;;;;;10.15;6.75;;;16.30;99.90;;;;;;5112666;28;20123;-67
2021/09/17 01:25:19;;;;;;;9.43;7.13;;;16.40;99.90;;;;;;5113851;28;20072;-67
2021/09/17 01:27:46;;;;;;;10.10;6.90;;;16.40;99.90;;;;;;5113871;28;20338;-67
2021/09/17 01:30:14;;;;;;;11.48;7.28;;;16.40;99.90;;;;;;5113918;28;20468;-67
2021/09/17 01:32:41;;;;;;;13.88;6.97;;;16.30;99.90;;;;;;5113805;28;20031;-68
2021/09/17 01:35:11;;;;;;;9.13;6.18;;;16.30;99.90;;;;;;5113741;28;20024;-67
2021/09/17 01:37:38;;;;;;;7.70;5.82;;;16.20;99.90;;;;;;5113587;28;20103;-68
2021/09/17 01:40:05;;;;;;;7.43;6.32;;;16.20;99.90;;;;;;5113757;28;20020;-68
2021/09/17 01:42:30;;;;;;;10.68;6.63;;;16.40;99.90;;;;;;5113625;28;20090;-67
2021/09/17 01:44:56;;;;;;;5.93;5.20;;;16.30;99.90;;;;;;5113565;28;20019;-67
2021/09/17 01:47:22;;;;;;;7.20;6.32;;;16.30;99.90;;;;;;5113609;28;20512;-66
2021/09/17 01:49:47;;;;;;;8.10;6.72;;;16.20;99.90;;;;;;5113540;28;20024;-67
2021/09/17 01:52:13;;;;;;;10.10;6.93;;;16.20;99.90;;;;;;5113729;28;20364;-66
2021/09/17 01:54:40;;;;;;;10.47;6.90;;;16.00;99.90;;;;;;5112379;28;20049;-66
2021/09/17 01:57:06;;;;;;;7.95;6.68;;;15.90;99.90;;;;;;5113318;28;20269;-66
2021/09/17 01:59:33;;;;;;;11.18;7.10;;;15.70;99.90;;;;;;5111970;28;20024;-66
2021/09/17 02:01:58;;;;;;;;;;;15.70;99.90;;;;;;5113674;28;20023;-66
2021/09/17 02:04:24;;;;;;;11.27;7.35;;;15.70;99.90;;;;;;5113282;28;19918;-67
2021/09/17 02:06:49;;;;;;;9.52;7.68;;;15.60;99.90;;;;;;5113149;28;20016;-66
2021/09/17 02:09:15;;;;;;;9.50;7.50;;;15.60;99.90;;;;;;5112717;28;20431;-67
2021/09/17 02:11:41;;;;;;;11.82;7.57;;;15.50;99.90;;;;;;5113223;28;20020;-67
2021/09/17 02:14:06;;;;;;;11.75;7.47;;;15.40;99.90;;;;;;5113238;28;20032;-67
2021/09/17 02:16:32;;;;;;;9.38;7.18;;;15.50;99.90;;;;;;5112117;28;20023;-67
2021/09/17 02:18:58;;;;;;;9.68;7.53;;;15.50;99.90;;;;;;5113126;28;20024;-67
2021/09/17 02:21:24;;;;;;;11.10;7.65;;;15.40;99.90;;;;;;5113250;28;20040;-68
2021/09/17 02:23:50;;;;;;;8.52;7.15;;;15.40;99.90;;;;;;5113007;28;20038;-67
2021/09/17 02:26:17;;;;;;;8.05;6.97;;;15.30;99.90;;;;;;5113022;28;20026;-67
2021/09/17 02:28:44;;;;;;;9.85;7.00;;;15.30;99.90;;;;;;5113842;28;20410;-68
2021/09/17 02:31:10;;;;;;;12.20;7.55;;;15.20;99.90;;;;;;5113286;28;20106;-68
2021/09/17 02:33:36;;;;;;;11.77;7.45;;;15.20;99.90;;;;;;5113175;28;20047;-68
2021/09/17 02:36:02;;;;;;;15.15;7.70;;;15.20;99.90;;;;;;5112944;28;20110;-67
2021/09/17 02:38:28;;;;;;;9.40;7.43;;;15.20;99.90;;;;;;5113145;28;20047;-68
2021/09/17 02:40:54;;;;;;;12.25;8.07;;;15.10;99.90;;;;;;5113243;28;20375;-68
2021/09/17 02:43:19;;;;;;;12.65;7.80;;;15.20;99.90;;;;;;5111338;28;20026;-68
2021/09/17 02:45:45;;;;;;;9.70;8.60;;;15.10;99.90;;;;;;5111405;28;20396;-68
2021/09/17 02:48:11;;;;;;;13.93;8.30;;;15.10;99.90;;;;;;5111618;28;20031;-68
2021/09/17 02:50:37;;;;;;;12.18;7.97;;;15.00;99.90;;;;;;5113161;28;20020;-67
2021/09/17 02:53:05;;;;;;;11.38;7.75;;;14.90;99.90;;;;;;5111480;28;20027;-68
2021/09/17 02:55:31;;;;;;;11.40;7.95;;;15.00;99.90;;;;;;5113183;28;20028;-67
2021/09/17 02:57:56;;;;;;;10.90;7.55;;;14.90;99.90;;;;;;5111632;28;20093;-68
2021/09/17 03:00:22;;;;;;;13.23;8.57;;;14.90;99.90;;;;;;5112917;28;20046;-68
2021/09/17 03:02:48;;;;;;;11.07;8.87;;;14.80;99.90;;;;;;5111445;28;20024;-67
2021/09/17 03:05:13;;;;;;;12.43;8.88;;;14.80;99.90;;;;;;5112685;28;20286;-67
2021/09/17 03:07:39;;;;;;;15.18;8.43;;;14.70;99.90;;;;;;5112813;28;20024;-68
2021/09/17 03:10:05;;;;;;;12.45;8.63;;;14.70;99.90;;;;;;5112636;28;20486;-68
2021/09/17 03:12:31;;;;;;;14.23;8.80;;;14.70;99.90;;;;;;5113001;28;20054;-68
2021/09/17 03:14:57;;;;;;;12.13;9.10;;;14.70;99.90;;;;;;5113348;28;20023;-68
2021/09/17 03:17:23;;;;;;;13.20;8.50;;;14.70;99.90;;;;;;5112739;28;20035;-68
2021/09/17 03:19:48;;;;;;;11.47;8.60;;;14.70;99.90;;;;;;5115221;28;20027;-67
2021/09/17 03:22:14;;;;;;;11.63;7.88;;;14.70;99.90;;;;;;5116462;28;20314;-68
2021/09/17 03:24:40;;;;;;;9.77;8.77;;;14.70;99.90;;;;;;5116626;28;20044;-67
2021/09/17 03:27:06;;;;;;;13.88;8.70;;;14.70;99.90;;;;;;5116140;28;20301;-68
2021/09/17 03:29:33;;;;;;;14.70;8.53;;;14.70;99.90;;;;;;5116290;27;20496;-68
2021/09/17 03:31:59;;;;;;;10.77;8.38;;;14.60;99.90;;;;;;5114308;28;20457;-67
2021/09/17 03:34:25;;;;;;;10.70;8.35;;;14.60;99.90;;;;;;5115799;28;20016;-67
2021/09/17 03:36:51;;;;;;;12.15;8.23;;;14.60;99.90;;;;;;5115631;28;20038;-68
2021/09/17 03:39:17;;;;;;;11.82;8.13;;;14.60;99.90;;;;;;5115550;28;20053;-67
2021/09/17 03:41:46;;;;;;;12.38;7.78;;;14.60;99.90;;;;;;5114243;28;20032;-68
2021/09/17 03:44:13;;;;;;;10.25;7.90;;;14.60;99.90;;;;;;5115422;28;20031;-67
2021/09/17 03:46:39;;;;;;;10.43;7.20;;;14.60;99.90;;;;;;5115398;28;20472;-68
2021/09/17 03:49:05;;;;;;;10.15;7.70;;;14.60;99.90;;;;;;5115220;28;20031;-67
2021/09/17 03:51:31;;;;;;;12.68;8.27;;;14.60;99.90;;;;;;5115161;28;20024;-67
2021/09/17 03:53:56;;;;;;;11.55;7.63;;;14.60;99.90;;;;;;5115488;28;20027;-67
2021/09/17 03:56:22;;;;;;;11.10;7.80;;;14.60;99.90;;;;;;5115045;28;20035;-67
2021/09/17 03:58:48;;;;;;;10.57;7.07;;;14.60;99.90;;;;;;5115002;28;20026;-67
2021/09/17 04:01:13;;;;;;;10.05;7.30;;;14.60;99.90;;;;;;5115081;28;20453;-67
2021/09/17 04:03:39;;;;;;;9.15;7.68;;;14.60;99.90;;;;;;5114775;27;20512;-67
2021/09/17 04:06:05;;;;;;;10.70;7.75;;;14.60;99.90;;;;;;5114925;28;20433;-67
2021/09/17 04:08:30;;;;;;;9.38;7.55;;;14.60;99.90;;;;;;5114914;28;20438;-67
2021/09/17 04:10:56;;;;;;;10.55;7.55;;;14.50;99.90;;;;;;5114765;28;20082;-67
2021/09/17 04:13:22;;;;;;;13.90;7.93;;;14.50;99.90;;;;;;5114727;28;20030;-67
2021/09/17 04:15:48;;;;;;;13.52;7.32;;;14.50;99.90;;;;;;5114830;28;20476;-67
2021/09/17 04:18:13;;;;;;;14.85;7.35;;;14.50;99.90;;;;;;5114493;28;20031;-67
2021/09/17 04:20:39;;;;;;;11.70;7.68;;;14.50;99.90;;;;;;5114595;28;20084;-67
2021/09/17 04:23:04;;;;;;;14.93;7.25;;;14.40;99.90;;;;;;5114637;28;20031;-67
2021/09/17 04:25:30;;;;;;;9.60;7.30;;;14.40;99.90;;;;;;5113031;28;20118;-65
2021/09/17 04:27:56;;;;;;;11.75;8.38;;;14.40;99.90;;;;;;5114839;28;20023;-65
2021/09/17 04:30:23;;;;;;;10.90;7.13;;;14.40;99.90;;;;;;5114590;28;20038;-65
2021/09/17 04:32:48;;;;;;;9.10;7.10;;;14.40;99.90;;;;;;5114096;28;20529;-64
2021/09/17 04:35:15;;;;;;;13.00;8.18;;;14.40;99.90;;;;;;5114457;28;20076;-65
2021/09/17 04:37:41;;;;;;;;;;;14.40;99.90;;;;;;5114974;28;20043;-65
2021/09/17 04:40:08;;;;;;;11.38;8.27;;;14.40;99.90;;;;;;5113110;28;19994;-68
2021/09/17 04:42:34;;;;;;;14.02;7.80;;;14.40;99.90;;;;;;5114292;28;20031;-68
2021/09/17 04:45:00;;;;;;;9.52;6.97;;;14.40;99.90;;;;;;5112725;28;20024;-65
2021/09/17 04:47:25;;;;;;;14.77;7.23;;;14.40;99.90;;;;;;5114063;28;20028;-66
2021/09/17 04:49:51;;;;;;;11.27;7.78;;;14.50;99.90;;;;;;5114542;28;20644;-67
2021/09/17 04:52:17;;;;;;;12.93;8.45;;;14.50;99.90;;;;;;5114423;28;20029;-65
2021/09/17 04:54:43;;;;;;;10.05;7.30;;;14.50;99.90;;;;;;5114693;28;20054;-66
2021/09/17 04:57:08;;;;;;;15.15;7.88;;;14.50;99.90;;;;;;5114369;28;20036;-66
2021/09/17 04:59:34;;;;;;;8.13;7.03;;;14.60;99.90;;;;;;5113936;28;20031;-66
2021/09/17 05:01:59;;;;;;;12.70;6.88;;;14.60;99.90;;;;;;5113890;28;20032;-64
2021/09/17 05:04:25;;;;;;;12.03;7.43;;;14.60;99.90;;;;;;5113620;28;20496;-65
2021/09/17 05:06:51;;;;;;;9.67;6.00;;;14.70;99.90;;;;;;5113775;28;20284;-66
2021/09/17 05:09:16;;;;;;;8.33;5.67;;;14.70;99.90;;;;;;5113598;28;20027;-66
2021/09/17 05:11:42;;;;;;;13.27;6.83;;;14.80;99.90;;;;;;5113883;28;20258;-66
2021/09/17 05:14:07;;;;;;;10.93;6.80;;;14.70;99.90;;;;;;5113685;28;20258;-66
2021/09/17 05:16:33;;;;;;;8.45;5.60;;;14.70;99.90;;;;;;5113615;28;20103;-67
2021/09/17 05:19:02;;;;;;;11.32;6.32;;;14.70;99.90;;;;;;5113489;28;20023;-66
2021/09/17 05:21:28;;;;;;;12.32;6.13;;;14.60;99.90;;;;;;5113563;28;20088;-66
2021/09/17 05:23:54;;;;;;;9.98;6.18;;;14.60;99.90;;;;;;5113242;28;20019;-67
2021/09/17 05:26:20;;;;;;;10.70;6.22;;;14.60;99.90;;;;;;5113420;28;20115;-67
2021/09/17 05:28:45;;;;;;;11.75;6.38;;;14.60;99.90;;;;;;5113375;28;20038;-67
2021/09/17 05:31:11;;;;;;;10.20;6.43;;;14.70;99.90;;;;;;5113453;28;20106;-67
2021/09/17 05:33:37;;;;;;;9.88;5.68;;;14.70;99.90;;;;;;5113339;28;20402;-67
2021/09/17 05:36:03;;;;;;;7.47;5.65;;;14.80;99.90;;;;;;5113514;28;20079;-66
2021/09/17 05:38:28;;;;;;;12.10;5.90;;;14.90;99.90;;;;;;5111424;28;20060;-66
2021/09/17 05:40:54;;;;;;;10.00;6.40;;;15.00;99.90;;;;;;5112915;28;20055;-67
2021/09/17 05:43:20;;;;;;;8.55;6.03;;;14.90;99.90;;;;;;5112347;27;20481;-67
2021/09/17 05:45:45;;;;;;;7.70;5.90;;;15.00;99.90;;;;;;5112730;28;20031;-68
2021/09/17 05:48:11;;;;;;;9.45;5.63;;;15.10;99.90;;;;;;5111721;28;20039;-67
2021/09/17 05:50:37;;;;;;;8.10;5.95;;;15.10;99.90;;;;;;5111681;28;20036;-67
2021/09/17 05:53:02;;;;;;;9.23;5.67;;;15.20;99.90;;;;;;5112820;28;20357;-67
2021/09/17 05:55:28;;;;;;;14.27;6.00;;;15.20;99.90;;;;;;5113184;28;20265;-67
2021/09/17 05:57:55;;;;;;;11.60;6.00;;;15.20;99.90;;;;;;5112941;28;20621;-67
2021/09/17 06:00:21;;;;;;;9.65;6.20;;;15.20;99.90;;;;;;5113336;28;20476;-66
2021/09/17 06:02:47;;;;;;;8.32;6.00;;;15.30;99.90;;;;;;5113145;28;20031;-66
2021/09/17 06:05:12;;;;;;;10.13;5.93;;;15.30;99.90;;;;;;5113121;28;20043;-67
2021/09/17 06:07:45;;;;;;;9.35;6.60;;;15.30;99.90;;;;;;5113198;28;20364;-66
2021/09/17 06:10:12;;;;;;;9.20;6.07;;;15.40;99.90;;;;;;5113050;28;20024;-66
2021/09/17 06:12:39;;;;;;;10.65;6.15;;;15.50;99.90;;;;;;5113130;28;20038;-67
2021/09/17 06:15:05;;;;;;;10.23;6.53;;;15.50;99.90;;;;;;5112033;28;20357;-65
2021/09/17 06:17:31;;;;;;;9.65;6.10;;;15.60;99.90;;;;;;5112741;28;20027;-66
2021/09/17 06:19:57;;;;;;;13.32;5.90;;;15.60;99.90;;;;;;5111255;28;20045;-66
2021/09/17 06:22:22;;;;;;;9.38;6.15;;;15.70;99.90;;;;;;5112732;28;20032;-65
2021/09/17 06:24:48;;;;;;;9.13;6.07;;;15.70;99.90;;;;;;5112422;28;20012;-66
2021/09/17 06:27:14;;;;;;;10.30;5.85;;;15.80;99.90;;;;;;5112494;28;20032;-65
2021/09/17 06:29:40;;;;;;;11.18;6.32;;;15.90;99.90;;;;;;5112587;28;20032;-65
2021/09/17 06:32:06;;;;;;;9.32;5.82;;;16.00;99.90;;;;;;5110875;28;20027;-66
2021/09/17 06:34:32;;;;;;;11.43;6.38;;;16.00;99.90;;;;;;5112803;28;20145;-65
2021/09/17 06:36:58;;;;;;;;;;;16.10;99.90;;;;;;5112918;28;20049;-66
2021/09/17 06:39:24;;;;;;;10.00;6.38;;;16.20;99.90;;;;;;5112347;28;19980;-66
2021/09/17 06:41:52;;;;;;;10.45;5.95;;;16.20;99.90;;;;;;5112447;28;20051;-65
2021/09/17 06:44:18;;;;;;;8.73;5.75;;;16.20;99.90;;;;;;5110766;28;20023;-66
2021/09/17 06:46:44;;;;;;;7.88;5.97;;;16.30;99.90;;;;;;5112419;28;20161;-66
2021/09/17 06:49:10;;;;;;;11.07;5.88;;;16.40;99.90;;;;;;5110873;28;20488;-66
2021/09/17 06:51:35;;;;;;;9.85;6.45;;;16.50;99.90;;;;;;5112414;28;20474;-66
2021/09/17 06:54:01;;;;;;;8.95;7.03;;;16.60;99.90;;;;;;5112855;28;20077;-65
2021/09/17 06:56:27;;;;;;;9.73;5.88;;;16.70;99.90;;;;;;5116585;27;20081;-66
2021/09/17 06:58:52;;;;;;;8.02;7.20;;;16.80;99.90;;;;;;5116129;28;20057;-65
2021/09/17 07:01:21;;;;;;;9.75;6.55;;;16.90;99.90;;;;;;5115024;28;20026;-66
2021/09/17 07:03:46;;;;;;;10.35;5.95;;;17.00;99.90;;;;;;5115860;28;20043;-66
2021/09/17 07:06:12;;;;;;;13.48;9.02;;;17.10;99.90;;;;;;5116019;28;20112;-66
2021/09/17 07:08:38;;;;;;;7.47;6.30;;;17.20;99.90;;;;;;5115929;28;20039;-66
2021/09/17 07:11:04;;;;;;;9.95;5.80;;;17.30;99.90;;;;;;5116123;28;20059;-67
2021/09/17 07:13:29;;;;;;;13.25;8.30;;;17.30;99.90;;;;;;5115886;28;20483;-67
2021/09/17 07:15:55;;;;;;;11.73;7.45;;;17.40;99.90;;;;;;5115955;28;20072;-66
2021/09/17 07:18:21;;;;;;;11.27;6.72;;;17.50;99.90;;;;;;5116040;28;20032;-66
2021/09/17 07:20:47;;;;;;;13.43;8.10;;;17.50;99.90;;;;;;5115586;28;20403;-66
2021/09/17 07:23:13;;;;;;;11.50;7.30;;;17.30;99.90;;;;;;5114314;28;20042;-66
2021/09/17 07:25:39;;;;;;;9.85;7.15;;;17.30;99.90;;;;;;5115362;28;20039;-66
2021/09/17 07:28:05;;;;;;;15.02;7.03;;;17.50;99.90;;;;;;5115580;28;20111;-66
2021/09/17 07:30:31;;;;;;;14.88;7.63;;;17.50;99.90;;;;;;5115431;28;20445;-66
2021/09/17 07:32:57;;;;;;;9.75;6.97;;;17.50;99.90;;;;;;5115542;28;20051;-67
2021/09/17 07:35:23;;;;;;;11.43;7.75;;;17.60;99.90;;;;;;5115511;28;20023;-64
2021/09/17 07:37:49;;;;;;;18.33;7.78;;;17.60;99.90;;;;;;5115745;28;20023;-64
2021/09/17 07:40:15;;;;;;;10.88;7.45;;;17.60;99.90;;;;;;5116190;28;20020;-64
2021/09/17 07:42:42;;;;;;;17.10;7.40;;;17.60;99.90;;;;;;5114018;28;20115;-65
2021/09/17 07:45:10;;;;;;;11.88;7.13;;;17.60;99.90;;;;;;5115558;28;20027;-64
2021/09/17 07:47:35;;;;;;;14.02;6.80;;;17.70;99.90;;;;;;5114944;28;20066;-64
2021/09/17 07:50:01;;;;;;;14.52;7.75;;;17.80;99.90;;;;;;5115079;28;20052;-64
2021/09/17 07:52:27;;;;;;;12.88;7.80;;;17.70;99.90;;;;;;5115465;28;20023;-69
2021/09/17 07:54:53;;;;;;;11.93;7.32;;;17.70;99.90;;;;;;5115278;28;20027;-67
2021/09/17 07:57:18;;;;;;;16.02;7.78;;;17.80;99.90;;;;;;5115002;28;20055;-67
2021/09/17 07:59:44;;;;;;;11.13;7.18;;;17.90;99.90;;;;;;5115276;28;20051;-66
2021/09/17 08:02:09;;;;;;;12.02;7.55;;;17.90;99.90;;;;;;5114943;28;20085;-65
2021/09/17 08:04:38;;;;;;;13.85;7.97;;;17.90;99.90;;;;;;5114726;28;20036;-65
2021/09/17 08:07:05;;;;;;;11.18;7.90;;;17.90;99.90;;;;;;5113807;28;20026;-65
2021/09/17 08:09:32;;;;;;;14.75;7.40;;;17.90;99.90;;;;;;5114751;28;20052;-66
2021/09/17 08:11:57;;;;;;;;;;;18.00;99.90;;;;;;5114954;28;20144;-65
2021/09/17 08:14:23;;;;;;;13.25;7.63;;;17.90;99.90;;;;;;5114443;28;20351;-65
2021/09/17 08:16:48;;;;;;;10.85;7.80;;;17.90;99.90;;;;;;5114359;28;20402;-65
2021/09/17 08:19:14;;;;;;;9.88;6.82;;;17.90;99.90;;;;;;5114475;28;20046;-65
2021/09/17 08:21:43;;;;;;;;;;;18.00;99.90;;;;;;5114994;28;20028;-65
2021/09/17 08:24:18;;;;;;;11.77;6.78;;;18.20;99.90;;;;;;5114484;28;19986;-65
2021/09/17 08:26:47;;;;;;;9.55;7.50;;;18.20;99.90;;;;;;5114366;28;20074;-65
2021/09/17 08:29:12;;;;;;;10.35;7.32;;;18.20;99.90;;;;;;5114201;28;20012;-65
2021/09/17 08:31:39;;;;;;;8.45;6.28;;;18.20;99.90;;;;;;5114065;28;20024;-65
2021/09/17 08:34:05;;;;;;;;;;;18.30;99.90;;;;;;5114892;28;20031;-64
2021/09/17 08:36:31;;;;;;;10.98;6.68;;;18.50;99.90;;;;;;5114320;28;19904;-64
2021/09/17 08:38:56;;;;;;;9.95;7.15;;;18.60;99.90;;;;;;5113164;28;20034;-65
2021/09/17 08:41:23;;;;;;;9.80;6.20;;;18.60;99.90;;;;;;5115129;28;20055;-64
2021/09/17 08:43:49;;;;;;;34.90;8.90;;;18.60;99.90;;;;;;5114304;28;20116;-64
2021/09/17 08:46:15;;;;;;;21.10;7.55;;;18.50;99.90;;;;;;5113810;28;20066;-65
2021/09/17 08:48:42;;;;;;;12.63;6.43;;;18.50;99.90;;;;;;5114109;28;20027;-65
2021/09/17 08:51:09;;;;;;;11.95;7.10;;;18.60;99.90;;;;;;5113964;28;20023;-65
2021/09/17 08:53:34;;;;;;;;;;;18.80;99.90;;;;;;5114252;27;20023;-65
2021/09/17 08:56:00;;;;;;;9.18;5.60;;;18.90;99.90;;;;;;5113768;28;19910;-65
2021/09/17 08:58:25;;;;;;;8.52;6.43;;;19.10;99.90;;;;;;5113818;28;20034;-65
2021/09/17 09:00:51;;;;;;;8.13;5.32;;;19.30;99.90;;;;;;5113898;28;20051;-65
2021/09/17 09:03:29;;;;;;;10.18;5.03;;;19.20;99.90;;;;;;5113814;28;20381;-66
2021/09/17 09:05:54;;;;;;;7.70;6.30;;;19.20;99.90;;;;;;5113986;28;20110;-65
2021/09/17 09:08:27;;;;;;;5.97;5.15;;;19.20;99.90;;;;;;5113516;28;20062;-65
2021/09/17 09:10:53;;;;;;;10.18;5.57;;;19.30;99.90;;;;;;5113609;28;20030;-64
2021/09/17 09:13:19;;;;;;;11.82;6.20;;;19.30;99.90;;;;;;5113537;28;20016;-65
2021/09/17 09:15:45;;;;;;;8.75;5.05;;;19.50;99.90;;;;;;5111998;28;20087;-66
2021/09/17 09:18:14;;;;;;;7.28;5.50;;;19.70;99.90;;;;;;5113250;28;20129;-67
2021/09/17 09:20:45;;;;;;;12.85;6.78;;;20.00;99.90;;;;;;5112843;28;20054;-65
2021/09/17 09:23:26;;;;;;;10.57;8.40;;;20.20;99.90;;;;;;5113301;28;20492;-66
2021/09/17 09:26:04;;;;;;;17.30;10.07;;;20.20;99.90;;;;;;5114062;28;20023;-65
2021/09/17 09:28:45;;;;;;;15.77;8.88;;;20.10;99.90;;;;;;5114344;28;20040;-65
2021/09/17 09:31:13;;;;;;;13.23;8.98;;;20.20;99.90;;;;;;5113263;28;20018;-66
2021/09/17 09:33:47;;;;;;;17.73;9.15;;;20.10;99.90;;;;;;5113223;28;20469;-67
2021/09/17 09:36:15;;;;;;;11.95;8.13;;;20.20;99.90;;;;;;5111691;28;20165;-67
2021/09/17 09:38:44;;;;;;;17.42;11.40;;;20.40;99.90;;;;;;5113014;28;20023;-67
2021/09/17 09:41:14;;;;;;;16.20;9.77;;;20.50;99.90;;;;;;5112845;28;20369;-66
2021/09/17 09:44:16;;;;;;;19.30;8.85;;;20.60;99.90;;;;;;5112907;28;20046;-66
2021/09/17 09:46:45;;;;;;;14.55;8.30;;;20.90;99.90;;;;;;5112828;28;20031;-67
2021/09/17 09:49:13;;;;;;;11.45;7.15;;;21.00;99.90;;;;;;5112894;28;20016;-67
2021/09/17 09:51:55;;;;;;;11.57;6.47;;;21.30;99.90;;;;;;5112607;28;20110;-67
2021/09/17 09:54:23;;;;;;;9.95;6.28;;;21.40;99.90;;;;;;5111642;28;20027;-67
2021/09/17 09:56:50;;;;;;;11.60;6.25;;;21.30;99.90;;;;;;5111660;28;20062;-67
2021/09/17 09:59:20;;;;;;;7.47;5.53;;;21.20;99.90;;;;;;5112926;28;20024;-66
2021/09/17 10:01:46;;;;;;;16.48;6.90;;;21.30;99.90;;;;;;5111256;28;20032;-66
2021/09/17 10:04:14;;;;;;;11.35;6.75;;;21.10;99.90;;;;;;5111043;28;20126;-66
2021/09/17 10:06:40;;;;;;;8.05;5.50;;;20.90;99.90;;;;;;5112344;28;20027;-67
2021/09/17 10:09:08;;;;;;;7.22;5.68;;;20.90;99.90;;;;;;5112746;28;20023;-66
2021/09/17 10:11:35;;;;;;;9.38;5.80;;;21.10;99.90;;;;;;5112742;28;20026;-68
2021/09/17 10:14:03;;;;;;;10.32;5.75;;;21.20;99.90;;;;;;5112542;28;20102;-67
2021/09/17 10:16:31;;;;;;;11.80;7.47;;;21.40;99.90;;;;;;5111290;28;20410;-67
2021/09/17 10:18:57;;;;;;;9.35;6.93;;;21.40;99.90;;;;;;5112458;28;20015;-67
2021/09/17 10:21:49;;;;;;;9.40;6.22;;;21.50;99.70;;;;;;5112801;28;20508;-67
2021/09/17 10:24:26;;;;;;;13.07;6.63;;;21.50;99.40;;;;;;5112827;28;20168;-67
2021/09/17 10:26:56;;;;;;;8.15;6.15;;;21.90;99.50;;;;;;5110825;28;20138;-66
2021/09/17 10:29:33;;;;;;;10.07;5.72;;;22.10;99.30;;;;;;5110365;28;20016;-67
2021/09/17 10:32:00;;;;;;;10.63;6.40;;;22.70;98.60;;;;;;5112662;28;20016;-67
2021/09/17 10:34:30;;;;;;;7.75;5.45;;;23.20;97.50;;;;;;5111395;28;20117;-67
2021/09/17 10:36:56;;;;;;;7.82;5.57;;;23.50;97.20;;;;;;5112235;28;20045;-67
2021/09/17 10:39:22;;;;;;;;;;;23.70;96.30;;;;;;5113042;28;20384;-67
2021/09/17 10:42:07;;;;;;;10.25;6.20;;;23.50;96.40;;;;;;5112636;28;19919;-67
2021/09/17 10:45:01;;;;;;;9.02;5.97;;;23.30;96.10;;;;;;5111103;28;20074;-67
2021/09/17 10:47:39;;;;;;;10.10;5.80;;;23.10;96.30;;;;;;5113518;28;20035;-66
2021/09/17 10:50:07;;;;;;;6.72;5.45;;;23.10;96.90;;;;;;5113961;28;20361;-66
2021/09/17 10:52:42;;;;;;;9.30;5.43;;;23.20;95.50;;;;;;5115614;28;20039;-66
2021/09/17 10:55:08;;;;;;;9.48;5.50;;;23.40;95.50;;;;;;5112986;28;20105;-66
2021/09/17 10:58:12;;;;;;;8.13;5.70;;;23.40;95.60;;;;;;5112330;28;20122;-66
2021/09/17 11:00:51;;;;;;;6.75;4.90;;;23.80;95.50;;;;;;5113664;28;20055;-66
2021/09/17 11:03:39;;;;;;;7.60;4.30;;;24.00;94.90;;;;;;5113312;28;20031;-65
2021/09/17 11:06:20;;;;;;;6.68;4.50;;;24.00;94.90;;;;;;5113265;28;20051;-66
2021/09/17 11:08:51;;;;;;;7.80;4.00;;;23.80;93.90;;;;;;5111740;28;20019;-66
2021/09/17 11:11:23;;;;;;;4.88;3.60;;;23.40;93.60;;;;;;5113450;28;20016;-65
2021/09/17 11:13:49;;;;;;;5.35;3.53;;;23.00;93.10;;;;;;5112968;28;20034;-66
2021/09/17 11:16:19;;;;;;;7.25;3.22;;;23.00;94.10;;;;;;5111190;28;20031;-66
2021/09/17 11:19:04;;;;;;;6.90;3.50;;;22.90;93.50;;;;;;5112185;28;20039;-67
2021/09/17 11:21:35;;;;;;;5.63;3.65;;;22.90;93.30;;;;;;5112444;28;20425;-66
2021/09/17 11:24:02;;;;;;;5.75;3.70;;;23.10;93.40;;;;;;5111993;28;20028;-66
2021/09/17 11:26:30;;;;;;;6.13;3.45;;;23.30;92.30;;;;;;5112186;28;20028;-65
2021/09/17 11:29:11;;;;;;;8.80;4.00;;;23.40;92.50;;;;;;5112034;28;20016;-67
2021/09/17 11:31:52;;;;;;;5.85;3.08;;;23.30;92.70;;;;;;5111726;28;20098;-67
2021/09/17 11:34:21;;;;;;;4.68;2.70;;;23.30;92.10;;;;;;5112633;28;20023;-67
2021/09/17 11:36:56;;;;;;;3.38;2.50;;;23.30;91.20;;;;;;5112014;28;20092;-67
2021/09/17 11:39:23;;;;;;;3.08;2.00;;;23.10;91.10;;;;;;5110326;28;20365;-66
2021/09/17 11:42:01;;;;;;;5.28;2.83;;;23.20;89.40;;;;;;5113740;28;20028;-67
2021/09/17 11:44:48;;;;;;;5.53;3.42;;;23.20;91.00;;;;;;5116683;27;20023;-67
2021/09/17 11:47:22;;;;;;;5.57;3.05;;;23.20;91.80;;;;;;5114473;28;20388;-67
2021/09/17 11:49:48;;;;;;;4.80;3.35;;;23.10;91.90;;;;;;5115842;28;20083;-66
2021/09/17 11:52:19;;;;;;;6.40;3.75;;;23.00;92.40;;;;;;5115263;28;20019;-66
2021/09/17 11:55:16;;;;;;;4.93;3.10;;;22.80;92.60;;;;;;5115330;28;20469;-67
2021/09/17 11:57:44;;;;;;;4.97;2.85;;;22.60;93.30;;;;;;5101305;28;20382;-67
2021/09/17 12:00:11;;;;;;;8.32;3.30;;;22.50;93.20;;;;;;5115001;28;20070;-68
2021/09/17 12:02:37;;;;;;;5.63;3.00;;;22.20;92.60;;;;;;5114920;28;20047;-67
2021/09/17 12:05:05;;;;;;;;;;;22.00;93.40;;;;;;5115959;28;20046;-67
2021/09/17 12:07:31;;;;;;;6.63;3.10;;;21.90;94.00;;;;;;5114703;28;20386;-66
2021/09/17 12:09:57;;;;;;;;;;;21.70;94.10;;;;;;5115980;28;20126;-67
2021/09/17 12:12:34;;;;;;;3.07;2.23;;;21.70;93.40;;;;;;5115398;27;19915;-67
2021/09/17 12:14:59;;;;;;;;;;;21.50;92.50;;;;;;5115562;28;20073;-67
2021/09/17 12:17:26;;;;;;;2.63;2.10;;;21.40;92.50;;;;;;5114787;28;19912;-65
2021/09/17 12:20:00;;;;;;;2.75;1.70;;;21.50;92.60;;;;;;5114737;27;20403;-65
2021/09/17 12:22:44;;;;;;;3.10;1.98;;;21.70;92.10;;;;;;5114351;28;20221;-66
2021/09/17 12:25:25;;;;;;;2.65;1.92;;;21.80;91.40;;;;;;5114237;28;20102;-66
2021/09/17 12:27:58;;;;;;;2.35;1.60;;;21.90;90.20;;;;;;5113233;28;20035;-66
2021/09/17 12:30:30;;;;;;;4.10;1.67;;;21.80;90.10;;;;;;5114480;28;20031;-66
2021/09/17 12:33:14;;;;;;;3.50;1.90;;;21.90;90.80;;;;;;5114335;28;20026;-66
2021/09/17 12:35:51;;;;;;;2.28;1.48;;;22.00;90.40;;;;;;5114474;28;20077;-66
2021/09/17 12:38:17;;;;;;;;;;;22.20;87.40;;;;;;5114747;28;20028;-66
2021/09/17 12:40:48;;;;;;;4.82;2.65;;;22.10;87.90;;;;;;5114480;28;20251;-65
2021/09/17 12:43:23;;;;;;;2.83;1.88;;;22.10;90.20;;;;;;5112852;28;20024;-67
2021/09/17 12:45:56;;;;;;;2.55;1.55;;;22.10;91.00;;;;;;5114459;28;20053;-66
2021/09/17 12:48:25;;;;;;;2.47;1.80;;;22.20;90.70;;;;;;5113230;28;20020;-67